Pagina principale
METAR-TAF:

METAR-TAF

Aeroporti :

Aeroporto militare Cameri

Novara, Italia

latitudine: 45-31N, longitudine: 008-40E, altezza: 178 m

Osservazione

Il bollettino è stato emesso 7 ore e 1 minuti fa, alle 04:55 UTC
Vento 2 kt da direzioni variabili
Temperature 21°C
Umidità 83%
Pressione 1016 hPa
Visibilità 10 km o più
nessuna nube inferiore a 1500 m e nessun cumulonembo

METAR: LIMN 210455Z VRB02KT CAVOK 21/18 Q1016 RMK SCT SCT080 VIS MIN 9999 BLK BLU

Ora: 13:56 (11:56 UTC)

Previsione

Il bollettino è stato emesso 6 ore e 56 minuti fa, alle 05:00 UTC
Previsione valida dal 21 alle 06 UTC al 21 alle 15 UTC
Vento 5 kt da nord-est
Visibilità 10 km o più
nessuna nube inferiore a 1500 m e nessun cumulonembo
Evoluzione graduale
dal 21 alle 11 UTC al 21 alle 13 UTC
Visibilità 10 km o più
Nubi sparse ad un'altezza di 3000 ft

TAF: LIMN 210500Z 2106/2115 05005KT CAVOK BECMG 2111/2113 9999 SCT030

Osservazioni e previsioni meteorologiche di più di 4000 aeroporti (messaggi METAR e TAF).

Le stazioni disponibili sono rappresentate dai dischi gialli e rossi sulla carta.

Puntare il mouse per vedere il nome della stazione.

Clicca sopra per visualizzare le osservazioni e previsioni meteorologiche.

Per cambiare la mappa : fare clic sui pulsanti verdi con una croce nera per ingrandire, il pulsante verde con un trattino per diminuire, o sulla freccia verde per le mappe adiacenti.


METAR-TAF: